Time;durP1;ratioP1;P1;durP2;ratioP2;P2;SDS_P1;SDS_P2;PMS_P1;PMS_P2;Temp;Humidity;BMP_temperature;BMP_pressure;BME280_temperature;BME280_humidity;BME280_pressure;Samples;Min_cycle;Max_cycle;Signal;HPM_P1;HPM_P2
2024/03/12 00:00:17;;;;;;;0.80;0.80;;;-0.80;99.90;;;;;;5115701;28;20191;-74
2024/03/12 00:02:46;;;;;;;0.80;0.80;;;-0.90;99.90;;;;;;5097168;28;20266;-74
2024/03/12 00:05:43;;;;;;;0.80;0.80;;;-1.00;99.90;;;;;;5115637;28;20244;-75
2024/03/12 00:08:09;;;;;;;0.70;0.70;;;-1.00;99.90;;;;;;5115338;28;20207;-74
2024/03/12 00:10:35;;;;;;;1.00;1.00;;;-1.00;99.90;;;;;;5115141;28;20210;-75
2024/03/12 00:13:07;;;;;;;0.80;0.80;;;-1.00;99.90;;;;;;5115225;28;20215;-75
2024/03/12 00:15:36;;;;;;;0.70;0.70;;;-1.10;99.90;;;;;;5115141;28;20184;-76
2024/03/12 00:18:05;;;;;;;0.70;0.70;;;-1.10;99.90;;;;;;5115233;28;20260;-75
2024/03/12 00:20:47;;;;;;;0.68;0.68;;;-1.10;99.90;;;;;;5114806;28;20267;-76
2024/03/12 00:23:15;;;;;;;0.80;0.80;;;-1.10;99.90;;;;;;5114027;28;20250;-75
2024/03/12 00:25:41;;;;;;;0.65;0.65;;;-1.10;99.90;;;;;;5114959;28;20255;-71
2024/03/12 00:28:13;;;;;;;0.70;0.70;;;-1.10;99.90;;;;;;5096533;28;20697;-70
2024/03/12 00:30:40;;;;;;;0.70;0.70;;;-1.20;99.90;;;;;;5114816;28;20228;-70
2024/03/12 00:33:10;;;;;;;0.68;0.68;;;-1.20;99.90;;;;;;5114765;28;20184;-70
2024/03/12 00:35:43;;;;;;;0.73;0.73;;;-1.20;99.90;;;;;;5114623;28;20275;-70
2024/03/12 00:38:09;;;;;;;0.80;0.80;;;-1.20;99.90;;;;;;5114788;28;20664;-70
2024/03/12 00:40:36;;;;;;;0.80;0.80;;;-1.10;99.90;;;;;;5114516;28;20724;-70
2024/03/12 00:43:03;;;;;;;1.10;1.10;;;-1.20;99.90;;;;;;5114638;28;20278;-71
2024/03/12 00:45:36;;;;;;;0.65;0.65;;;-1.20;99.90;;;;;;5114477;28;20690;-70
2024/03/12 00:48:06;;;;;;;0.77;0.77;;;-1.10;99.90;;;;;;5114490;28;20278;-70
2024/03/12 00:50:34;;;;;;;2.70;1.33;;;-1.20;99.90;;;;;;5114300;28;20217;-70
2024/03/12 00:53:01;;;;;;;0.80;0.80;;;-1.20;99.90;;;;;;5108166;28;20675;-71
2024/03/12 00:55:28;;;;;;;0.60;0.60;;;-1.20;99.90;;;;;;5114235;28;20198;-70
2024/03/12 00:57:55;;;;;;;0.80;0.80;;;-1.20;99.90;;;;;;5114422;28;20203;-70
2024/03/12 01:00:33;;;;;;;0.70;0.70;;;-1.20;99.90;;;;;;5114249;28;20270;-70
2024/03/12 01:03:00;;;;;;;0.77;0.77;;;-1.30;99.90;;;;;;5114037;28;20226;-70
2024/03/12 01:05:30;;;;;;;0.82;0.82;;;-1.30;99.90;;;;;;5114020;28;20191;-70
2024/03/12 01:08:01;;;;;;;0.73;0.73;;;-1.30;99.90;;;;;;5114155;28;20220;-72
2024/03/12 01:10:31;;;;;;;0.80;0.80;;;-1.30;99.90;;;;;;5113962;28;20192;-70
2024/03/12 01:12:59;;;;;;;0.70;0.70;;;-1.30;99.90;;;;;;5114158;28;20188;-69
2024/03/12 01:15:26;;;;;;;0.80;0.80;;;-1.30;99.90;;;;;;5113951;28;20270;-71
2024/03/12 01:17:56;;;;;;;0.68;0.68;;;-1.30;99.90;;;;;;5114037;28;20728;-70
2024/03/12 01:20:24;;;;;;;0.73;0.73;;;-1.30;99.90;;;;;;5113726;28;20187;-71
2024/03/12 01:22:54;;;;;;;0.60;0.60;;;-1.30;99.90;;;;;;5095796;28;20202;-71
2024/03/12 01:25:24;;;;;;;0.70;0.70;;;-1.30;99.90;;;;;;5113688;28;20227;-71
2024/03/12 01:27:55;;;;;;;0.80;0.80;;;-1.30;99.90;;;;;;5129727;27;20633;-70
2024/03/12 01:30:26;;;;;;;0.73;0.73;;;-1.30;99.90;;;;;;5113583;28;20256;-70
2024/03/12 01:32:53;;;;;;;0.80;0.80;;;-1.30;99.90;;;;;;5095591;28;20717;-72
2024/03/12 01:35:24;;;;;;;0.70;0.70;;;-1.40;99.90;;;;;;5113596;28;20278;-74
2024/03/12 01:37:51;;;;;;;0.73;0.73;;;-1.40;99.90;;;;;;5113887;28;20712;-75
2024/03/12 01:40:29;;;;;;;0.80;0.80;;;-1.40;99.90;;;;;;5113960;28;20210;-75
2024/03/12 01:43:03;;;;;;;0.70;0.70;;;-1.40;99.90;;;;;;5113556;28;20179;-75
2024/03/12 01:45:30;;;;;;;0.70;0.70;;;-1.40;99.90;;;;;;5095030;28;20286;-75
2024/03/12 01:47:58;;;;;;;0.80;0.80;;;-1.40;99.90;;;;;;5111559;28;20203;-74
2024/03/12 01:50:25;;;;;;;0.82;0.82;;;-1.40;99.90;;;;;;5109149;28;20192;-75
2024/03/12 01:52:53;;;;;;;0.50;0.50;;;-1.40;99.90;;;;;;5113344;28;20614;-74
2024/03/12 01:55:19;;;;;;;1.38;1.27;;;-1.30;99.90;;;;;;5113164;28;20291;-74
2024/03/12 01:57:46;;;;;;;0.70;0.70;;;-1.30;99.90;;;;;;5113353;28;20195;-75
2024/03/12 02:00:15;;;;;;;0.68;0.68;;;-1.30;99.90;;;;;;5113299;28;20285;-76
2024/03/12 02:02:42;;;;;;;0.60;0.60;;;-1.30;99.90;;;;;;5112895;28;20223;-75
2024/03/12 02:05:10;;;;;;;0.70;0.70;;;-1.30;99.90;;;;;;5112775;28;20264;-74
2024/03/12 02:07:48;;;;;;;0.82;0.82;;;-1.30;99.90;;;;;;5112962;28;20650;-75
2024/03/12 02:10:15;;;;;;;0.70;0.70;;;-1.30;99.90;;;;;;5128831;27;20699;-76
2024/03/12 02:12:43;;;;;;;0.70;0.70;;;-1.30;99.90;;;;;;5113020;28;20187;-74
2024/03/12 02:15:09;;;;;;;0.65;0.65;;;-1.40;99.90;;;;;;5128701;27;20206;-75
2024/03/12 02:17:35;;;;;;;0.60;0.60;;;-1.30;99.90;;;;;;5112814;28;20271;-75
2024/03/12 02:20:03;;;;;;;1.73;1.60;;;-1.30;99.90;;;;;;5112782;28;20200;-75
2024/03/12 02:22:30;;;;;;;0.70;0.70;;;-1.30;99.90;;;;;;5112749;28;20248;-75
2024/03/12 02:24:58;;;;;;;1.95;1.15;;;-1.30;99.90;;;;;;5112465;28;20196;-75
2024/03/12 02:27:25;;;;;;;0.60;0.60;;;-1.20;99.90;;;;;;5112638;28;20678;-75
2024/03/12 02:29:50;;;;;;;0.68;0.68;;;-1.20;99.90;;;;;;5112618;28;20686;-75
2024/03/12 02:32:17;;;;;;;0.80;0.80;;;-1.20;99.90;;;;;;5094509;28;20252;-75
2024/03/12 02:34:43;;;;;;;0.80;0.80;;;-1.20;99.90;;;;;;5112774;28;20554;-75
2024/03/12 02:37:09;;;;;;;0.80;0.80;;;-1.20;99.90;;;;;;5112935;28;20212;-75
2024/03/12 02:39:35;;;;;;;0.90;0.90;;;-1.20;99.90;;;;;;5112685;28;20187;-75
2024/03/12 02:42:01;;;;;;;0.93;0.93;;;-1.20;99.90;;;;;;5112784;28;20694;-75
2024/03/12 02:44:26;;;;;;;0.60;0.60;;;-1.20;99.90;;;;;;5112086;28;20316;-75
2024/03/12 02:46:54;;;;;;;0.70;0.70;;;-1.20;99.90;;;;;;5116959;28;20215;-71
2024/03/12 02:49:20;;;;;;;0.68;0.68;;;-1.20;99.90;;;;;;5116810;28;20231;-70
2024/03/12 02:51:46;;;;;;;0.80;0.80;;;-1.30;99.90;;;;;;5116894;28;20188;-70
2024/03/12 02:54:16;;;;;;;0.80;0.80;;;-1.30;99.90;;;;;;5116815;28;20602;-70
2024/03/12 02:56:42;;;;;;;0.70;0.70;;;-1.30;99.90;;;;;;5116599;28;20196;-69
2024/03/12 02:59:11;;;;;;;0.80;0.80;;;-1.30;99.90;;;;;;5116747;28;20558;-70
2024/03/12 03:01:40;;;;;;;0.70;0.70;;;-1.30;99.90;;;;;;5116339;28;20562;-70
2024/03/12 03:04:08;;;;;;;0.77;0.77;;;-1.30;99.90;;;;;;5116620;28;20223;-69
2024/03/12 03:06:37;;;;;;;0.80;0.80;;;-1.30;99.90;;;;;;5116364;28;20670;-70
2024/03/12 03:09:07;;;;;;;0.75;0.75;;;-1.40;99.90;;;;;;5116457;28;20207;-71
2024/03/12 03:12:23;;;;;;;22.15;2.95;;;-1.30;99.90;;;;;;5116299;28;20241;-71
2024/03/12 03:15:11;;;;;;;0.80;0.80;;;-1.40;99.90;;;;;;5085559;28;20203;-71
2024/03/12 03:17:45;;;;;;;0.77;0.77;;;-1.40;99.90;;;;;;5098136;28;20224;-71
2024/03/12 03:20:12;;;;;;;4.97;1.95;;;-1.50;99.90;;;;;;5116218;28;20198;-70
2024/03/12 03:22:39;;;;;;;0.70;0.70;;;-1.50;99.90;;;;;;5097867;28;20200;-71
2024/03/12 03:25:06;;;;;;;1.00;1.00;;;-1.50;99.90;;;;;;5116138;28;20565;-71
2024/03/12 03:27:32;;;;;;;0.70;0.70;;;-1.50;99.90;;;;;;5116034;28;20191;-71
2024/03/12 03:29:59;;;;;;;0.70;0.70;;;-1.50;99.90;;;;;;5116109;28;20244;-71
2024/03/12 03:32:28;;;;;;;0.80;0.80;;;-1.60;99.90;;;;;;5115856;28;20196;-72
2024/03/12 03:34:53;;;;;;;0.80;0.80;;;-1.60;99.90;;;;;;5116070;28;20190;-71
2024/03/12 03:37:22;;;;;;;0.70;0.70;;;-1.60;99.90;;;;;;5115789;28;20272;-71
2024/03/12 03:39:48;;;;;;;0.60;0.60;;;-1.70;99.90;;;;;;5116069;28;20218;-70
2024/03/12 03:42:15;;;;;;;0.80;0.80;;;-1.70;99.90;;;;;;5115373;28;20200;-70
2024/03/12 03:44:43;;;;;;;0.80;0.80;;;-1.70;99.90;;;;;;5115688;28;20195;-71
2024/03/12 03:47:09;;;;;;;0.70;0.70;;;-1.80;99.90;;;;;;5115661;28;20226;-71
2024/03/12 03:49:34;;;;;;;0.63;0.63;;;-1.80;99.90;;;;;;5097132;28;20611;-70
2024/03/12 03:52:01;;;;;;;0.70;0.70;;;-1.90;99.90;;;;;;5097447;28;20202;-71
2024/03/12 03:54:26;;;;;;;0.68;0.68;;;-1.90;99.90;;;;;;5115389;28;20195;-71
2024/03/12 03:56:52;;;;;;;0.70;0.70;;;-1.90;99.90;;;;;;5114394;28;20658;-75
2024/03/12 03:59:19;;;;;;;0.70;0.70;;;-2.00;99.90;;;;;;5115580;28;20187;-74
2024/03/12 04:01:49;;;;;;;0.60;0.60;;;-2.00;99.90;;;;;;5100915;28;20577;-74
2024/03/12 04:04:18;;;;;;;0.80;0.80;;;-2.10;99.90;;;;;;5110347;28;20246;-74
2024/03/12 04:06:44;;;;;;;0.80;0.80;;;-2.20;99.90;;;;;;5115339;28;20192;-74
2024/03/12 04:09:11;;;;;;;0.70;0.70;;;-2.20;99.90;;;;;;5097062;28;20219;-73
2024/03/12 04:11:36;;;;;;;0.80;0.80;;;-2.20;99.90;;;;;;5115094;28;20191;-74
2024/03/12 04:14:02;;;;;;;0.82;0.82;;;-2.30;99.90;;;;;;5115293;28;20192;-74
2024/03/12 04:16:31;;;;;;;0.70;0.70;;;-2.40;99.90;;;;;;5115092;28;20191;-74
2024/03/12 04:18:59;;;;;;;0.80;0.80;;;-2.40;99.90;;;;;;5115321;28;20195;-73
2024/03/12 04:21:26;;;;;;;0.70;0.70;;;-2.50;99.90;;;;;;5114899;28;20652;-74
2024/03/12 04:23:51;;;;;;;0.70;0.70;;;-2.50;99.90;;;;;;5097066;28;20811;-74
2024/03/12 04:26:19;;;;;;;0.93;0.93;;;-2.60;99.90;;;;;;5115013;28;20207;-73
2024/03/12 04:28:46;;;;;;;0.70;0.70;;;-2.70;99.90;;;;;;5114972;28;20268;-74
2024/03/12 04:31:11;;;;;;;0.70;0.70;;;-2.70;99.90;;;;;;5096740;28;20195;-74
2024/03/12 04:33:38;;;;;;;0.68;0.68;;;-2.80;99.90;;;;;;5114776;28;20179;-74
2024/03/12 04:36:06;;;;;;;0.90;0.90;;;-2.80;99.90;;;;;;5114969;28;20199;-74
2024/03/12 04:38:32;;;;;;;0.70;0.70;;;-2.90;99.90;;;;;;5112841;28;20198;-73
2024/03/12 04:40:58;;;;;;;0.70;0.70;;;-2.90;99.90;;;;;;5114788;28;20655;-73
2024/03/12 04:43:24;;;;;;;0.80;0.80;;;-2.90;99.90;;;;;;5096306;28;20195;-73
2024/03/12 04:45:50;;;;;;;0.80;0.80;;;-3.00;99.90;;;;;;5114759;28;20596;-73
2024/03/12 04:48:15;;;;;;;0.80;0.80;;;-3.00;99.90;;;;;;5114686;28;20202;-72
2024/03/12 04:50:41;;;;;;;0.70;0.70;;;-2.90;99.90;;;;;;5114559;28;20187;-72
2024/03/12 04:53:07;;;;;;;0.80;0.80;;;-3.00;99.90;;;;;;5114412;28;20184;-72
2024/03/12 04:55:39;;;;;;;0.70;0.70;;;-3.00;99.90;;;;;;5114437;28;20179;-74
2024/03/12 04:58:05;;;;;;;0.70;0.70;;;-3.00;99.90;;;;;;5114561;28;20195;-74
2024/03/12 05:00:31;;;;;;;0.70;0.70;;;-3.00;99.90;;;;;;5095842;28;20557;-73
2024/03/12 05:02:57;;;;;;;0.70;0.70;;;-3.00;99.90;;;;;;5113322;28;20293;-73
2024/03/12 05:05:34;;;;;;;0.77;0.77;;;-3.10;99.90;;;;;;5115877;27;20648;-71
2024/03/12 05:07:59;;;;;;;0.70;0.70;;;-3.10;99.90;;;;;;5114034;28;20279;-72
2024/03/12 05:10:26;;;;;;;0.73;0.73;;;-3.20;99.90;;;;;;5114075;28;20270;-72
2024/03/12 05:12:51;;;;;;;0.60;0.60;;;-3.20;99.90;;;;;;5114591;28;20192;-71
2024/03/12 05:15:17;;;;;;;0.70;0.70;;;-3.20;99.90;;;;;;5113852;28;20187;-72
2024/03/12 05:17:48;;;;;;;0.68;0.68;;;-3.20;99.90;;;;;;5114017;28;20223;-72
2024/03/12 05:20:17;;;;;;;0.70;0.70;;;-3.20;99.90;;;;;;5113809;28;20611;-69
2024/03/12 05:22:44;;;;;;;0.70;0.70;;;-3.10;99.90;;;;;;5096345;28;20713;-74
2024/03/12 05:25:18;;;;;;;0.77;0.77;;;-3.00;99.90;;;;;;5113762;28;20192;-76
2024/03/12 05:27:47;;;;;;;0.70;0.70;;;-3.00;99.90;;;;;;5095857;28;20252;-74
2024/03/12 05:30:16;;;;;;;0.80;0.80;;;-3.00;99.90;;;;;;5113771;28;20234;-74
2024/03/12 05:32:53;;;;;;;0.80;0.80;;;-3.00;99.90;;;;;;5113587;28;20262;-74
2024/03/12 05:35:22;;;;;;;0.70;0.70;;;-3.00;99.90;;;;;;5109025;28;20183;-75
2024/03/12 05:48:49;;;;;;;1.20;1.20;;;-2.90;99.90;;;;;;5113795;28;20210;-74
2024/03/12 05:51:21;;;;;;;0.80;0.80;;;-2.80;99.90;;;;;;5114031;28;20240;-75
2024/03/12 05:53:48;;;;;;;0.80;0.80;;;-2.80;99.90;;;;;;5114484;28;20270;-75
2024/03/12 05:56:44;;;;;;;0.70;0.70;;;-2.80;99.90;;;;;;5095617;28;20195;-76
2024/03/12 06:00:04;;;;;;;0.90;0.90;;;-2.70;99.90;;;;;;5097270;28;20215;-77
2024/03/12 06:02:26;;;;;;;0.70;0.70;;;-2.70;99.90;;;;;;4982744;28;20649;-74
2024/03/12 06:05:12;;;;;;;1.00;1.00;;;-2.60;99.90;;;;;;4972894;28;20293;-75
2024/03/12 06:07:52;;;;;;;0.88;0.88;;;-2.60;99.90;;;;;;4970875;28;20587;-75
2024/03/12 06:10:18;;;;;;;0.80;0.80;;;-2.50;99.90;;;;;;4971749;28;20223;-75
2024/03/12 06:13:16;;;;;;;0.80;0.80;;;-2.50;99.90;;;;;;4971673;28;20278;-75
2024/03/12 06:15:42;;;;;;;0.70;0.70;;;-2.50;99.90;;;;;;4877142;29;20222;-75
2024/03/12 06:18:08;;;;;;;0.70;0.70;;;-2.40;99.90;;;;;;4876841;29;20195;-74
2024/03/12 06:27:24;;;;;;;0.85;0.85;;;-2.20;99.90;;;;;;4839572;29;20224;-75
2024/03/12 06:29:51;;;;;;;0.75;0.75;;;-2.30;99.90;;;;;;4840463;29;20244;-75
2024/03/12 06:32:20;;;;;;;0.80;0.80;;;-2.20;99.90;;;;;;4839503;29;20209;-75
2024/03/12 06:34:46;;;;;;;1.27;1.17;;;-2.10;99.90;;;;;;4840210;29;20209;-74
2024/03/12 06:37:12;;;;;;;0.90;0.90;;;-2.10;99.90;;;;;;4839429;29;20201;-74
2024/03/12 06:39:41;;;;;;;0.90;0.90;;;-2.10;99.90;;;;;;4889577;29;20253;-74
2024/03/12 06:42:36;;;;;;;0.68;0.68;;;-2.10;99.90;;;;;;4913961;29;20206;-74
2024/03/12 06:45:38;;;;;;;0.80;0.80;;;-2.00;99.90;;;;;;4914395;29;20224;-75
2024/03/12 06:48:04;;;;;;;0.80;0.80;;;-1.90;99.90;;;;;;4908673;28;20710;-74
2024/03/12 06:50:30;;;;;;;0.70;0.70;;;-1.90;99.90;;;;;;4914020;29;20678;-75
2024/03/12 06:52:56;;;;;;;0.80;0.80;;;-1.90;99.90;;;;;;4954773;28;20267;-75
2024/03/12 06:56:45;;;;;;;;;;;;;;;;;;;;;
2024/03/12 06:59:15;;;;;;;0.90;0.90;;;-1.80;99.90;;;;;;4920872;28;20208;-75
2024/03/12 07:01:41;;;;;;;0.80;0.80;;;-1.70;99.90;;;;;;5054673;28;20213;-75
2024/03/12 07:04:11;;;;;;;0.63;0.63;;;-1.70;99.90;;;;;;5071762;28;20197;-75
2024/03/12 07:06:42;;;;;;;0.70;0.70;;;-1.60;99.90;;;;;;5054165;28;20204;-75
2024/03/12 07:09:09;;;;;;;0.80;0.80;;;-1.60;99.90;;;;;;5071964;28;20212;-75
2024/03/12 07:12:12;;;;;;;0.65;0.65;;;-1.60;99.90;;;;;;5072011;28;20197;-74
2024/03/12 07:14:54;;;;;;;0.75;0.75;;;-1.50;99.90;;;;;;5040296;28;20239;-75
2024/03/12 07:17:19;;;;;;;0.70;0.70;;;-1.50;99.90;;;;;;5071856;28;20280;-75
2024/03/12 07:19:47;;;;;;;1.52;1.42;;;-1.40;99.90;;;;;;5053760;28;20296;-75
2024/03/12 07:22:17;;;;;;;0.80;0.80;;;-1.40;99.90;;;;;;5072597;28;20199;-74
2024/03/12 07:25:30;;;;;;;0.80;0.80;;;-1.30;99.90;;;;;;5053983;28;20201;-74
2024/03/12 07:27:59;;;;;;;0.70;0.70;;;-1.10;99.90;;;;;;5059002;28;20212;-76
2024/03/12 07:30:25;;;;;;;0.65;0.65;;;-1.00;99.90;;;;;;5071462;28;20295;-75
2024/03/12 07:32:54;;;;;;;0.88;0.88;;;-0.90;99.90;;;;;;5057073;28;20232;-75
2024/03/12 07:35:20;;;;;;;0.85;0.85;;;-0.70;99.90;;;;;;5057006;28;20287;-75
2024/03/12 07:37:46;;;;;;;0.80;0.80;;;-0.60;99.90;;;;;;5075526;28;20263;-75
2024/03/12 07:40:12;;;;;;;0.68;0.68;;;-0.50;99.90;;;;;;5075143;28;20744;-75
2024/03/12 07:42:44;;;;;;;0.68;0.68;;;-0.40;99.90;;;;;;5074925;28;20193;-75
2024/03/12 07:45:35;;;;;;;0.80;0.80;;;-0.30;99.90;;;;;;5059908;28;20291;-76
2024/03/12 07:48:09;;;;;;;0.82;0.82;;;-0.30;99.90;;;;;;5076783;28;20617;-74
2024/03/12 07:50:36;;;;;;;1.27;1.20;;;-0.20;99.90;;;;;;5076820;28;20283;-74
2024/03/12 07:53:05;;;;;;;0.60;0.60;;;-0.10;99.90;;;;;;5090844;28;20220;-74
2024/03/12 07:55:32;;;;;;;0.60;0.60;;;0.00;99.90;;;;;;5090216;28;20580;-74
2024/03/12 07:58:01;;;;;;;0.80;0.80;;;0.10;99.90;;;;;;5074976;28;20189;-74
2024/03/12 08:00:29;;;;;;;0.90;0.90;;;0.30;99.90;;;;;;5076448;28;20752;-75
2024/03/12 08:02:55;;;;;;;1.00;1.00;;;0.40;99.90;;;;;;5056571;28;20225;-74
2024/03/12 08:05:21;;;;;;;0.80;0.80;;;0.50;99.90;;;;;;5074496;28;20246;-74
2024/03/12 08:07:47;;;;;;;0.77;0.77;;;0.50;99.90;;;;;;5075252;28;20603;-75
2024/03/12 08:10:12;;;;;;;0.85;0.85;;;0.60;99.90;;;;;;5074626;28;20704;-74
2024/03/12 08:12:41;;;;;;;0.98;0.98;;;0.80;99.90;;;;;;5056684;28;20196;-74
2024/03/12 08:15:08;;;;;;;0.73;0.73;;;0.90;99.90;;;;;;5074524;28;20192;-74
2024/03/12 08:17:35;;;;;;;0.75;0.75;;;1.00;99.90;;;;;;5074487;28;20425;-74
2024/03/12 08:20:05;;;;;;;1.08;1.02;;;1.10;99.90;;;;;;5074508;28;20196;-74
2024/03/12 08:22:31;;;;;;;0.98;0.98;;;1.20;99.90;;;;;;5080976;28;20683;-74
2024/03/12 08:24:57;;;;;;;0.80;0.80;;;1.30;99.90;;;;;;5094722;28;20184;-76
2024/03/12 08:27:22;;;;;;;0.80;0.80;;;1.40;99.90;;;;;;5094467;28;20192;-74
2024/03/12 08:29:49;;;;;;;1.50;1.42;;;1.50;99.90;;;;;;5076322;28;20208;-75
2024/03/12 08:32:15;;;;;;;0.85;0.85;;;1.60;99.90;;;;;;5094467;28;20583;-74
2024/03/12 08:34:41;;;;;;;0.82;0.82;;;1.70;99.90;;;;;;5094275;28;20199;-75
2024/03/12 08:37:09;;;;;;;0.70;0.70;;;2.00;99.90;;;;;;5076443;28;20717;-74
2024/03/12 08:39:34;;;;;;;0.80;0.80;;;2.30;99.90;;;;;;5094274;28;20188;-74
2024/03/12 08:42:00;;;;;;;1.25;1.08;;;2.40;99.90;;;;;;5094238;28;20192;-74
2024/03/12 08:44:29;;;;;;;0.80;0.80;;;2.50;99.90;;;;;;5093441;28;20652;-74
2024/03/12 08:50:17;;;;;;;0.90;0.90;;;2.20;99.90;;;;;;5087387;28;20319;-75
2024/03/12 08:52:43;;;;;;;0.90;0.90;;;2.30;99.90;;;;;;5095025;28;20224;-74
2024/03/12 08:55:09;;;;;;;0.90;0.90;;;2.40;99.90;;;;;;5094552;28;20192;-74
2024/03/12 08:57:35;;;;;;;0.68;0.68;;;2.50;99.90;;;;;;5094073;28;20609;-73
2024/03/12 09:00:30;;;;;;;0.80;0.80;;;2.60;99.90;;;;;;5095327;28;20199;-75
2024/03/12 09:02:56;;;;;;;0.88;0.88;;;2.60;99.90;;;;;;5032402;28;20236;-75
2024/03/12 09:05:23;;;;;;;0.80;0.80;;;2.70;99.90;;;;;;5032549;28;20637;-75
2024/03/12 09:07:48;;;;;;;0.80;0.80;;;3.00;99.90;;;;;;5032517;28;20210;-76
2024/03/12 09:10:15;;;;;;;0.90;0.90;;;3.30;99.90;;;;;;5014829;28;20566;-73
2024/03/12 09:12:49;;;;;;;0.90;0.90;;;3.60;99.90;;;;;;5032297;28;21304;-75
2024/03/12 09:15:44;;;;;;;0.80;0.80;;;4.00;99.90;;;;;;5031957;28;20603;-74
2024/03/12 09:18:10;;;;;;;0.90;0.90;;;4.10;99.90;;;;;;5031423;28;20201;-73
2024/03/12 09:20:51;;;;;;;0.80;0.80;;;4.30;99.90;;;;;;5032142;28;20206;-74
2024/03/12 09:23:19;;;;;;;0.70;0.70;;;4.40;99.90;;;;;;5015519;28;20638;-74
2024/03/12 09:25:45;;;;;;;0.77;0.77;;;4.50;99.90;;;;;;5031009;28;20565;-74
2024/03/12 09:28:11;;;;;;;0.80;0.80;;;4.90;99.90;;;;;;5031154;28;20194;-74
2024/03/12 09:30:38;;;;;;;0.85;0.85;;;4.90;99.90;;;;;;5030986;28;20198;-74
2024/03/12 09:33:04;;;;;;;0.77;0.77;;;4.80;99.90;;;;;;5031058;28;20202;-74
2024/03/12 09:35:30;;;;;;;0.82;0.82;;;4.80;99.90;;;;;;5030911;28;20190;-75
2024/03/12 09:38:22;;;;;;;0.70;0.70;;;5.10;99.90;;;;;;5031164;28;20567;-74
2024/03/12 09:40:49;;;;;;;1.38;1.27;;;5.30;99.90;;;;;;5051244;28;20691;-76
2024/03/12 09:43:18;;;;;;;0.80;0.80;;;5.00;99.90;;;;;;5073445;28;20485;-75
2024/03/12 09:45:47;;;;;;;0.80;0.80;;;4.90;99.90;;;;;;5073845;28;20557;-74
2024/03/12 09:51:42;;;;;;;0.80;0.80;;;5.50;99.90;;;;;;5069954;28;20284;-73
2024/03/12 09:54:09;;;;;;;0.80;0.80;;;6.00;99.90;;;;;;5072276;28;20196;-74
2024/03/12 09:56:45;;;;;;;0.80;0.80;;;5.80;99.90;;;;;;5075269;28;20719;-75
2024/03/12 09:59:11;;;;;;;0.93;0.93;;;5.70;99.90;;;;;;5073629;28;20195;-74
2024/03/12 10:02:06;;;;;;;1.27;1.17;;;6.20;99.90;;;;;;5074715;28;20188;-73
2024/03/12 10:05:02;;;;;;;0.80;0.80;;;6.40;99.90;;;;;;5037478;28;20255;-75
2024/03/12 10:07:29;;;;;;;0.88;0.88;;;6.50;99.90;;;;;;5034251;28;20256;-74
2024/03/12 10:13:38;;;;;;;0.70;0.70;;;6.60;99.90;;;;;;4916766;29;20238;-75
2024/03/12 10:17:03;;;;;;;0.70;0.70;;;7.20;99.90;;;;;;4931392;29;20216;-75
2024/03/12 10:19:29;;;;;;;0.70;0.70;;;7.40;99.90;;;;;;4862930;29;20207;-75
2024/03/12 10:22:29;;;;;;;0.80;0.80;;;7.30;99.90;;;;;;4933980;29;20209;-76
2024/03/12 10:25:07;;;;;;;0.70;0.70;;;7.40;99.90;;;;;;4970839;28;20211;-75
2024/03/12 10:27:33;;;;;;;0.70;0.70;;;7.30;99.90;;;;;;4971233;28;20306;-75
2024/03/12 10:29:59;;;;;;;0.80;0.80;;;7.50;99.90;;;;;;4956169;28;20720;-74
2024/03/12 10:32:24;;;;;;;0.70;0.70;;;8.00;99.90;;;;;;4955142;28;20200;-73
2024/03/12 10:34:53;;;;;;;0.90;0.90;;;8.00;99.90;;;;;;4956155;28;20214;-75
2024/03/12 10:37:34;;;;;;;0.70;0.70;;;8.20;99.90;;;;;;4971373;28;20210;-75
2024/03/12 10:40:17;;;;;;;0.68;0.68;;;8.30;99.90;;;;;;4955353;28;20203;-76
2024/03/12 10:43:01;;;;;;;0.70;0.70;;;8.50;99.90;;;;;;4956163;28;20199;-76
2024/03/12 10:45:52;;;;;;;0.68;0.68;;;8.20;99.90;;;;;;4971879;28;20196;-75
2024/03/12 10:48:18;;;;;;;0.63;0.63;;;8.40;99.90;;;;;;4950127;28;20208;-74
2024/03/12 10:50:45;;;;;;;0.70;0.70;;;8.50;99.90;;;;;;5044589;28;20220;-75
2024/03/12 10:53:11;;;;;;;1.75;1.08;;;8.20;99.90;;;;;;5071998;28;20684;-75
2024/03/12 10:55:38;;;;;;;0.70;0.70;;;8.20;99.90;;;;;;5056131;28;20242;-75
2024/03/12 10:58:08;;;;;;;0.70;0.70;;;8.70;99.90;;;;;;5072127;28;20193;-73
2024/03/12 11:00:47;;;;;;;1.52;0.95;;;9.20;99.90;;;;;;5073691;28;20196;-71
2024/03/12 11:03:13;;;;;;;0.75;0.75;;;9.50;99.90;;;;;;5082691;28;20294;-71
2024/03/12 11:05:42;;;;;;;0.70;0.70;;;9.70;99.50;;;;;;5093075;28;20293;-71
2024/03/12 11:09:21;;;;;;;0.60;0.60;;;9.90;99.90;;;;;;5096649;28;20204;-72
2024/03/12 11:11:49;;;;;;;0.70;0.70;;;10.20;99.90;;;;;;5036508;28;20202;-71
2024/03/12 11:14:15;;;;;;;0.60;0.60;;;10.50;98.60;;;;;;5111752;28;20215;-71
2024/03/12 11:16:56;;;;;;;0.70;0.70;;;10.50;98.00;;;;;;5096867;28;20283;-71
2024/03/12 11:23:09;;;;;;;0.63;0.63;;;11.10;96.40;;;;;;5034863;28;20213;-72
2024/03/12 11:25:45;;;;;;;0.60;0.60;;;10.80;96.80;;;;;;5018035;28;20234;-72
2024/03/12 11:28:22;;;;;;;0.85;0.85;;;10.70;96.70;;;;;;5034679;28;20220;-72
2024/03/12 11:31:08;;;;;;;0.50;0.50;;;10.60;97.00;;;;;;5061825;28;20212;-72
2024/03/12 11:33:51;;;;;;;0.70;0.70;;;10.40;95.50;;;;;;5095866;28;20192;-72
2024/03/12 11:37:11;;;;;;;0.70;0.70;;;10.40;96.70;;;;;;5095869;28;20310;-72
2024/03/12 11:40:06;;;;;;;0.55;0.55;;;10.30;94.40;;;;;;5094687;28;20630;-72
2024/03/12 11:43:23;;;;;;;0.82;0.82;;;10.50;95.20;;;;;;5095445;28;20204;-72
2024/03/12 11:46:01;;;;;;;0.73;0.73;;;10.70;94.20;;;;;;5043438;28;20630;-72
2024/03/12 11:48:38;;;;;;;0.70;0.70;;;10.70;95.10;;;;;;5033842;28;20721;-72
2024/03/12 11:51:05;;;;;;;0.65;0.65;;;10.80;94.40;;;;;;5074042;28;20291;-72
2024/03/12 11:53:47;;;;;;;0.70;0.70;;;10.80;94.40;;;;;;5076180;28;20675;-72
2024/03/12 11:56:23;;;;;;;0.63;0.63;;;10.80;96.10;;;;;;5075487;28;20185;-72
2024/03/12 11:59:10;;;;;;;0.70;0.70;;;10.90;94.00;;;;;;5075652;28;20271;-72
2024/03/12 12:02:33;;;;;;;0.70;0.70;;;10.60;93.40;;;;;;5075650;28;20200;-74
2024/03/12 12:05:00;;;;;;;0.70;0.70;;;10.40;93.70;;;;;;5013517;28;20250;-73
2024/03/12 12:11:02;;;;;;;0.60;0.60;;;10.20;94.90;;;;;;5052977;28;20220;-74
2024/03/12 12:16:58;;;;;;;0.60;0.60;;;10.70;95.30;;;;;;5004337;28;20245;-75
2024/03/12 12:19:25;;;;;;;0.98;0.98;;;11.40;94.90;;;;;;5012220;28;20202;-75
2024/03/12 12:22:49;;;;;;;0.70;0.70;;;11.60;93.60;;;;;;5013983;28;20707;-75
2024/03/12 12:25:49;;;;;;;0.80;0.80;;;11.90;92.90;;;;;;4983041;28;20992;-76
2024/03/12 12:28:16;;;;;;;0.68;0.68;;;11.30;92.80;;;;;;5012389;28;20785;-73
2024/03/12 12:31:09;;;;;;;0.90;0.90;;;11.10;94.00;;;;;;5013046;28;20206;-78
2024/03/12 12:33:44;;;;;;;0.70;0.70;;;10.80;91.90;;;;;;5024547;28;20216;-76
2024/03/12 12:36:13;;;;;;;0.75;0.75;;;10.90;93.00;;;;;;5015542;28;20221;-75
2024/03/12 12:38:42;;;;;;;0.60;0.60;;;10.70;92.90;;;;;;5015241;28;20198;-74
2024/03/12 12:41:09;;;;;;;0.52;0.52;;;10.60;92.70;;;;;;5039906;28;20611;-74
2024/03/12 12:43:35;;;;;;;0.70;0.70;;;9.80;92.60;;;;;;5035962;28;20189;-74
2024/03/12 12:46:05;;;;;;;0.68;0.68;;;9.30;94.10;;;;;;5054072;28;20260;-75
2024/03/12 12:48:40;;;;;;;0.98;0.98;;;9.10;93.60;;;;;;5054906;28;20190;-74
2024/03/12 12:51:09;;;;;;;0.65;0.65;;;9.00;94.10;;;;;;5053915;28;20216;-74
2024/03/12 12:53:36;;;;;;;0.70;0.70;;;8.80;93.50;;;;;;5053646;28;20669;-74
2024/03/12 12:56:03;;;;;;;0.70;0.70;;;8.50;93.60;;;;;;5053781;28;20657;-74
2024/03/12 12:58:33;;;;;;;0.57;0.57;;;8.50;95.30;;;;;;5053667;28;20190;-73
2024/03/12 13:01:11;;;;;;;0.60;0.60;;;8.70;95.20;;;;;;5036268;28;20700;-75
2024/03/12 13:03:39;;;;;;;0.68;0.68;;;8.60;94.70;;;;;;5069619;28;20269;-74
2024/03/12 13:06:18;;;;;;;0.70;0.70;;;8.80;95.70;;;;;;5094441;28;20279;-75
2024/03/12 13:08:45;;;;;;;0.93;0.93;;;9.30;97.10;;;;;;5093835;28;20630;-75
2024/03/12 13:11:18;;;;;;;0.70;0.70;;;9.70;95.40;;;;;;5075525;28;20196;-74
2024/03/12 13:13:45;;;;;;;0.70;0.70;;;9.90;93.80;;;;;;5093563;28;20245;-75
2024/03/12 13:16:15;;;;;;;1.08;1.00;;;10.10;94.60;;;;;;5075505;28;20199;-72
2024/03/12 13:18:45;;;;;;;0.70;0.70;;;10.30;93.70;;;;;;5093386;28;20210;-72
2024/03/12 13:21:33;;;;;;;0.80;0.80;;;10.00;94.20;;;;;;5093569;28;20219;-72
2024/03/12 13:23:58;;;;;;;1.13;1.05;;;9.70;94.20;;;;;;5093647;28;20215;-72
2024/03/12 13:26:24;;;;;;;1.23;1.13;;;9.40;94.40;;;;;;5093317;28;20226;-72
2024/03/12 13:28:54;;;;;;;0.75;0.75;;;9.10;94.00;;;;;;5081186;28;20209;-72
2024/03/12 13:31:23;;;;;;;0.73;0.73;;;9.00;94.60;;;;;;5088644;28;20192;-72
2024/03/12 13:33:50;;;;;;;0.68;0.68;;;9.00;94.30;;;;;;5073198;28;20238;-71
2024/03/12 13:36:25;;;;;;;1.55;1.13;;;8.70;94.40;;;;;;5055178;28;20225;-73
2024/03/12 13:38:53;;;;;;;0.70;0.70;;;8.80;97.60;;;;;;5073059;28;20188;-72
2024/03/12 13:41:19;;;;;;;0.82;0.82;;;9.20;97.10;;;;;;5088294;28;20212;-72
2024/03/12 13:43:45;;;;;;;0.85;0.85;;;10.00;95.60;;;;;;5072860;28;20192;-72
2024/03/12 13:46:38;;;;;;;0.70;0.70;;;10.70;94.70;;;;;;5073753;28;20240;-71
2024/03/12 13:49:16;;;;;;;0.60;0.60;;;11.10;93.30;;;;;;5070576;28;20224;-72
2024/03/12 13:51:42;;;;;;;1.05;0.95;;;10.30;93.40;;;;;;5054797;28;20197;-71
2024/03/12 13:54:08;;;;;;;2.45;1.70;;;9.40;94.10;;;;;;5072807;28;20181;-71